Time;durP1;ratioP1;P1;durP2;ratioP2;P2;SDS_P1;SDS_P2;PMS_P1;PMS_P2;Temp;Humidity;BMP_temperature;BMP_pressure;BME280_temperature;BME280_humidity;BME280_pressure;Samples;Min_cycle;Max_cycle;Signal;HPM_P1;HPM_P2
2021/06/22 00:00:09;;;;;;;6.67;6.00;;;19.70;99.90;;;;;;5031323;28;20436;-69
2021/06/22 00:02:35;;;;;;;6.13;5.50;;;19.60;99.90;;;;;;5031497;28;20772;-69
2021/06/22 00:05:00;;;;;;;6.07;5.47;;;19.60;99.90;;;;;;5028401;28;20444;-68
2021/06/22 00:07:26;;;;;;;5.77;5.27;;;19.60;99.90;;;;;;5019831;28;20249;-69
2021/06/22 00:09:51;;;;;;;7.20;6.50;;;19.60;99.90;;;;;;5033482;28;20182;-68
2021/06/22 00:12:17;;;;;;;7.50;6.43;;;19.60;99.90;;;;;;5017375;28;20190;-69
2021/06/22 00:14:42;;;;;;;6.70;6.10;;;19.70;99.90;;;;;;5015851;28;20652;-69
2021/06/22 00:17:08;;;;;;;6.17;5.30;;;19.70;99.90;;;;;;5015741;28;20195;-69
2021/06/22 00:19:33;;;;;;;8.90;5.07;;;19.70;99.90;;;;;;5015322;28;20186;-69
2021/06/22 00:21:59;;;;;;;6.07;5.60;;;19.70;99.90;;;;;;5014390;28;20179;-68
2021/06/22 00:24:24;;;;;;;7.17;5.77;;;19.70;99.90;;;;;;5018282;28;20178;-68
2021/06/22 00:26:50;;;;;;;6.27;5.77;;;19.70;99.90;;;;;;5029038;28;20186;-69
2021/06/22 00:29:16;;;;;;;5.73;5.20;;;19.50;99.90;;;;;;5015217;28;20199;-69
2021/06/22 00:31:42;;;;;;;6.40;5.20;;;19.50;99.90;;;;;;5015584;28;20182;-69
2021/06/22 00:34:08;;;;;;;5.70;5.20;;;19.50;99.90;;;;;;5015356;28;20445;-69
2021/06/22 00:36:33;;;;;;;5.70;5.20;;;19.40;99.90;;;;;;5015349;28;20171;-69
2021/06/22 00:38:59;;;;;;;6.47;5.97;;;19.30;99.90;;;;;;5032255;28;20336;-68
2021/06/22 00:41:24;;;;;;;6.17;5.67;;;19.20;99.90;;;;;;5034830;28;20210;-69
2021/06/22 00:43:50;;;;;;;4.77;4.47;;;19.20;99.90;;;;;;5017413;28;20183;-69
2021/06/22 00:46:15;;;;;;;5.80;5.40;;;19.20;99.90;;;;;;5015059;28;20241;-69
2021/06/22 00:48:41;;;;;;;5.40;5.00;;;19.00;99.90;;;;;;5014703;28;20206;-69
2021/06/22 00:51:06;;;;;;;6.23;5.73;;;19.00;99.90;;;;;;5015185;28;20170;-69
2021/06/22 00:53:34;;;;;;;5.63;5.00;;;19.00;99.90;;;;;;5024870;28;20184;-69
2021/06/22 00:55:59;;;;;;;6.43;5.83;;;19.00;99.90;;;;;;5034834;28;20332;-69
2021/06/22 00:58:25;;;;;;;5.00;4.37;;;19.10;99.90;;;;;;5031694;28;21105;-69
2021/06/22 01:00:51;;;;;;;4.77;4.47;;;19.10;99.90;;;;;;5020246;28;20532;-69
2021/06/22 01:03:17;;;;;;;5.57;5.07;;;19.10;99.90;;;;;;5025108;28;20335;-69
2021/06/22 01:05:42;;;;;;;5.60;5.10;;;19.00;99.90;;;;;;5014685;28;20997;-69
2021/06/22 01:08:09;;;;;;;6.83;5.57;;;19.10;99.90;;;;;;5031583;28;20542;-68
2021/06/22 01:10:34;;;;;;;7.20;5.50;;;19.00;99.90;;;;;;5031182;28;20205;-69
2021/06/22 01:13:00;;;;;;;8.03;5.23;;;19.00;99.90;;;;;;5014803;28;20453;-68
2021/06/22 01:15:28;;;;;;;6.53;5.30;;;19.10;99.90;;;;;;5014817;28;20170;-69
2021/06/22 01:17:59;;;;;;;4.63;3.97;;;19.10;99.90;;;;;;5014098;28;20431;-68
2021/06/22 01:20:30;;;;;;;5.00;4.70;;;19.20;99.90;;;;;;5014291;28;20434;-69
2021/06/22 01:23:00;;;;;;;8.90;4.90;;;19.10;99.90;;;;;;5022134;28;20461;-68
2021/06/22 01:25:26;;;;;;;6.30;5.33;;;19.00;99.90;;;;;;5021631;28;20462;-69
2021/06/22 01:27:52;;;;;;;5.63;4.63;;;18.90;99.90;;;;;;5030438;28;20448;-68
2021/06/22 01:30:18;;;;;;;4.40;4.10;;;18.90;99.90;;;;;;5031611;28;20179;-69
2021/06/22 01:32:44;;;;;;;5.73;5.20;;;18.90;99.90;;;;;;5014309;28;20430;-69
2021/06/22 01:35:11;;;;;;;5.10;4.70;;;18.90;99.90;;;;;;5021665;28;20490;-69
2021/06/22 01:37:48;;;;;;;5.03;4.43;;;18.80;99.90;;;;;;5027026;28;20199;-69
2021/06/22 01:40:14;;;;;;;5.17;4.30;;;18.90;99.90;;;;;;5017546;28;20523;-68
2021/06/22 01:42:39;;;;;;;5.37;4.60;;;18.90;99.90;;;;;;5034163;28;20858;-68
2021/06/22 01:45:05;;;;;;;4.67;4.23;;;18.90;99.90;;;;;;5033443;28;20210;-68
2021/06/22 01:47:31;;;;;;;4.90;4.43;;;18.90;99.90;;;;;;5017313;28;20703;-69
2021/06/22 01:50:01;;;;;;;5.90;5.40;;;18.90;99.90;;;;;;5032544;28;20429;-69
2021/06/22 01:52:27;;;;;;;5.23;4.83;;;18.80;99.90;;;;;;5033550;28;20379;-68
2021/06/22 01:54:54;;;;;;;5.57;5.07;;;18.80;99.90;;;;;;5033608;28;20805;-69
2021/06/22 01:57:23;;;;;;;6.07;4.83;;;18.80;99.90;;;;;;5033256;28;20672;-69
2021/06/22 01:59:49;;;;;;;6.10;5.60;;;18.80;99.90;;;;;;5013574;28;20434;-69
2021/06/22 02:02:15;;;;;;;6.37;5.87;;;18.60;99.90;;;;;;5022400;28;20432;-69
2021/06/22 02:04:41;;;;;;;6.60;6.10;;;18.60;99.90;;;;;;5033057;28;20674;-68
2021/06/22 02:07:06;;;;;;;6.20;5.57;;;18.60;99.90;;;;;;5033222;28;20252;-68
2021/06/22 02:09:32;;;;;;;5.73;4.70;;;18.60;99.90;;;;;;5018721;28;20170;-69
2021/06/22 02:11:58;;;;;;;5.20;4.90;;;18.70;99.90;;;;;;5033299;28;20213;-69
2021/06/22 02:14:24;;;;;;;5.67;4.70;;;18.70;99.90;;;;;;5033133;28;20285;-68
2021/06/22 02:16:50;;;;;;;6.43;5.07;;;18.70;99.90;;;;;;5016715;28;20434;-69
2021/06/22 02:19:16;;;;;;;4.80;4.50;;;18.70;99.90;;;;;;5013060;28;20230;-69
2021/06/22 02:21:41;;;;;;;5.00;4.60;;;18.70;99.90;;;;;;5019692;28;20937;-69
2021/06/22 02:24:07;;;;;;;6.90;5.07;;;18.70;99.90;;;;;;5023686;28;20191;-69
2021/06/22 02:26:33;;;;;;;6.93;4.83;;;18.70;99.90;;;;;;5013203;28;20257;-68
2021/06/22 02:28:58;;;;;;;6.03;5.60;;;18.60;99.90;;;;;;5012262;28;20207;-68
2021/06/22 02:31:24;;;;;;;6.93;4.77;;;18.70;99.90;;;;;;5014250;28;20215;-69
2021/06/22 02:33:49;;;;;;;5.47;4.93;;;18.60;99.90;;;;;;5020667;28;20186;-69
2021/06/22 02:36:18;;;;;;;5.10;4.70;;;18.50;99.90;;;;;;5021087;28;20178;-69
2021/06/22 02:38:43;;;;;;;6.50;5.50;;;18.60;99.90;;;;;;5014117;28;20199;-69
2021/06/22 02:41:08;;;;;;;5.00;4.60;;;18.70;99.90;;;;;;5012960;28;20452;-69
2021/06/22 02:43:34;;;;;;;6.03;5.53;;;18.70;99.90;;;;;;5013366;28;20604;-69
2021/06/22 02:46:00;;;;;;;5.77;5.20;;;18.70;99.90;;;;;;5025111;28;20206;-69
2021/06/22 02:48:25;;;;;;;6.50;5.17;;;18.60;99.90;;;;;;5026929;28;20569;-69
2021/06/22 02:50:51;;;;;;;5.27;4.90;;;18.60;99.90;;;;;;5018613;28;20186;-69
2021/06/22 02:53:16;;;;;;;5.33;4.83;;;18.70;99.90;;;;;;5032425;28;20186;-68
2021/06/22 02:55:42;;;;;;;5.07;4.67;;;18.70;99.90;;;;;;5032389;28;20187;-68
2021/06/22 02:58:08;;;;;;;7.27;4.80;;;18.60;99.90;;;;;;5016724;28;20293;-69
2021/06/22 03:00:34;;;;;;;6.07;5.60;;;18.70;99.90;;;;;;5012571;28;20715;-69
2021/06/22 03:03:00;;;;;;;5.93;5.53;;;18.70;99.90;;;;;;5013784;28;20214;-69
2021/06/22 03:05:25;;;;;;;6.10;5.50;;;18.70;99.90;;;;;;5024723;28;20495;-68
2021/06/22 03:07:51;;;;;;;5.40;5.00;;;18.60;99.90;;;;;;5030711;28;20198;-68
2021/06/22 03:10:20;;;;;;;6.67;6.07;;;18.60;99.90;;;;;;5013521;28;20494;-69
2021/06/22 03:12:46;;;;;;;6.70;6.13;;;18.50;99.90;;;;;;5019546;28;20185;-69
2021/06/22 03:15:13;;;;;;;4.60;4.30;;;18.50;99.90;;;;;;5032024;28;20934;-69
2021/06/22 03:17:39;;;;;;;9.30;5.60;;;18.60;99.90;;;;;;5031847;28;20675;-69
2021/06/22 03:20:08;;;;;;;7.00;6.40;;;18.50;99.90;;;;;;5027834;28;20527;-69
2021/06/22 03:22:34;;;;;;;7.87;7.23;;;18.40;99.90;;;;;;5012375;28;20438;-69
2021/06/22 03:24:59;;;;;;;5.90;5.50;;;18.20;99.90;;;;;;5012344;28;20465;-68
2021/06/22 03:27:25;;;;;;;5.90;5.30;;;18.30;99.90;;;;;;5012396;28;20202;-69
2021/06/22 03:29:50;;;;;;;5.43;5.00;;;18.40;99.90;;;;;;5012142;28;20191;-69
2021/06/22 03:32:16;;;;;;;6.27;5.60;;;18.40;99.90;;;;;;5030048;28;20209;-69
2021/06/22 03:34:42;;;;;;;5.70;5.20;;;18.30;99.90;;;;;;5031730;28;20268;-69
2021/06/22 03:37:08;;;;;;;4.83;4.43;;;18.30;99.90;;;;;;5028609;28;20444;-69
2021/06/22 03:39:34;;;;;;;5.90;5.50;;;18.50;99.90;;;;;;5011920;28;20175;-69
2021/06/22 03:42:00;;;;;;;7.20;6.47;;;18.60;99.90;;;;;;5020439;28;20185;-69
2021/06/22 03:44:26;;;;;;;6.60;5.87;;;18.60;99.90;;;;;;5032180;28;20432;-69
2021/06/22 03:46:51;;;;;;;11.03;5.10;;;18.70;99.90;;;;;;5017850;28;20289;-68
2021/06/22 03:49:17;;;;;;;6.30;5.70;;;18.80;99.90;;;;;;5031011;28;20189;-69
2021/06/22 03:51:42;;;;;;;6.40;5.80;;;18.80;99.90;;;;;;5026465;28;20189;-69
2021/06/22 03:54:08;;;;;;;6.33;5.93;;;18.90;99.90;;;;;;5012057;28;20599;-68
2021/06/22 03:56:34;;;;;;;7.27;6.67;;;18.80;99.90;;;;;;5012043;28;20233;-68
2021/06/22 03:58:59;;;;;;;5.63;5.23;;;18.80;99.90;;;;;;5011787;28;20207;-68
2021/06/22 04:01:25;;;;;;;8.93;7.20;;;18.70;99.90;;;;;;5022457;28;20297;-69
2021/06/22 04:03:51;;;;;;;7.97;6.40;;;18.60;99.90;;;;;;5031561;28;20221;-69
2021/06/22 04:06:16;;;;;;;7.37;6.70;;;18.40;99.90;;;;;;5031252;28;20519;-69
2021/06/22 04:08:42;;;;;;;7.23;6.60;;;18.50;99.90;;;;;;5016420;28;20194;-68
2021/06/22 04:11:09;;;;;;;8.00;6.50;;;18.60;99.90;;;;;;5010603;28;20214;-69
2021/06/22 04:13:35;;;;;;;7.50;5.40;;;18.80;99.90;;;;;;5016583;28;20174;-68
2021/06/22 04:16:00;;;;;;;7.50;6.70;;;18.80;99.90;;;;;;5023025;28;20566;-68
2021/06/22 04:18:26;;;;;;;5.90;5.50;;;18.80;99.90;;;;;;5011674;28;20492;-69
2021/06/22 04:20:52;;;;;;;5.43;4.93;;;18.90;99.90;;;;;;5012149;28;20191;-68
2021/06/22 04:23:17;;;;;;;8.33;7.13;;;18.90;99.90;;;;;;5023510;28;20190;-70
2021/06/22 04:25:44;;;;;;;7.00;5.43;;;18.90;99.90;;;;;;5012749;28;20462;-69
2021/06/22 04:28:09;;;;;;;5.43;4.70;;;18.90;99.90;;;;;;5011761;28;20278;-69
2021/06/22 04:30:37;;;;;;;6.30;5.70;;;18.90;99.90;;;;;;5013361;28;20520;-69
2021/06/22 04:33:03;;;;;;;5.40;5.00;;;18.90;99.90;;;;;;5015202;28;20262;-70
2021/06/22 04:35:30;;;;;;;6.80;6.13;;;18.90;99.90;;;;;;5020420;28;20511;-69
2021/06/22 04:37:57;;;;;;;6.57;6.07;;;18.90;99.90;;;;;;5029919;28;20457;-69
2021/06/22 04:40:23;;;;;;;6.30;5.80;;;18.90;99.90;;;;;;5018372;28;20426;-69
2021/06/22 04:42:48;;;;;;;6.13;5.63;;;19.00;99.90;;;;;;5012087;28;20492;-69
2021/06/22 04:45:14;;;;;;;20.20;6.83;;;19.00;99.90;;;;;;5014308;28;20198;-70
2021/06/22 04:47:40;;;;;;;7.33;6.73;;;19.00;99.90;;;;;;5030993;28;20198;-70
2021/06/22 04:50:06;;;;;;;9.53;8.63;;;18.90;99.90;;;;;;5015895;28;20551;-69
2021/06/22 04:52:33;;;;;;;7.63;6.90;;;18.90;99.90;;;;;;5013555;28;20175;-69
2021/06/22 04:54:59;;;;;;;8.43;7.63;;;19.20;99.90;;;;;;5034348;28;20440;-69
2021/06/22 04:57:24;;;;;;;12.40;11.27;;;19.30;99.90;;;;;;5034531;28;20448;-70
2021/06/22 04:59:50;;;;;;;12.80;11.70;;;19.50;99.90;;;;;;5034308;28;20383;-69
2021/06/22 05:02:16;;;;;;;11.53;9.80;;;19.70;99.90;;;;;;5034492;28;20193;-69
2021/06/22 05:04:41;;;;;;;10.07;9.33;;;19.70;99.90;;;;;;5022425;28;20332;-69
2021/06/22 05:07:07;;;;;;;11.83;10.83;;;19.80;99.90;;;;;;5018763;28;20175;-69
2021/06/22 05:09:32;;;;;;;12.20;11.20;;;19.70;99.90;;;;;;5034107;28;20182;-69
2021/06/22 05:11:58;;;;;;;12.20;11.00;;;19.70;99.90;;;;;;5032597;28;20556;-69
2021/06/22 05:14:23;;;;;;;15.40;13.83;;;19.80;99.90;;;;;;5032918;28;20224;-71
2021/06/22 05:16:49;;;;;;;15.87;14.40;;;19.80;99.90;;;;;;5018816;28;20229;-71
2021/06/22 05:19:18;;;;;;;17.13;13.80;;;19.80;99.90;;;;;;5032482;28;20183;-71
2021/06/22 05:21:44;;;;;;;15.80;12.90;;;19.80;99.90;;;;;;5034102;28;20644;-71
2021/06/22 05:24:10;;;;;;;11.93;10.70;;;19.80;99.90;;;;;;5034167;28;20440;-68
2021/06/22 05:26:36;;;;;;;12.33;11.27;;;19.80;99.90;;;;;;5034042;28;20209;-68
2021/06/22 05:29:03;;;;;;;14.20;11.93;;;19.60;99.90;;;;;;5015399;28;20461;-68
2021/06/22 05:31:28;;;;;;;14.43;13.23;;;19.50;99.90;;;;;;5042263;28;20523;-67
2021/06/22 05:33:55;;;;;;;14.47;13.20;;;19.60;99.90;;;;;;5032513;28;20591;-66
2021/06/22 05:36:21;;;;;;;15.90;14.40;;;19.60;99.90;;;;;;5033742;28;20189;-67
2021/06/22 05:38:46;;;;;;;15.13;13.77;;;19.70;99.90;;;;;;5021103;28;20461;-66
2021/06/22 05:41:12;;;;;;;14.93;13.53;;;19.80;99.90;;;;;;5014248;28;20194;-67
2021/06/22 05:43:37;;;;;;;14.13;12.93;;;19.80;99.90;;;;;;5014174;28;20182;-66
2021/06/22 05:46:03;;;;;;;15.87;14.37;;;19.90;99.90;;;;;;5015416;28;20349;-67
2021/06/22 05:48:28;;;;;;;15.27;13.97;;;20.00;99.90;;;;;;5013861;28;20207;-67
2021/06/22 05:50:54;;;;;;;14.63;13.50;;;20.00;99.90;;;;;;5026403;28;20320;-67
2021/06/22 05:53:20;;;;;;;18.00;16.17;;;20.20;99.90;;;;;;5033606;28;20179;-67
2021/06/22 05:55:46;;;;;;;15.20;13.63;;;20.20;99.90;;;;;;5019401;28;20190;-66
2021/06/22 05:58:12;;;;;;;18.07;16.00;;;20.20;99.90;;;;;;5014759;28;20209;-65
2021/06/22 06:00:37;;;;;;;15.03;13.73;;;20.30;99.90;;;;;;5020095;28;20206;-66
2021/06/22 06:03:03;;;;;;;15.30;13.83;;;20.40;99.90;;;;;;5013959;28;20464;-66
2021/06/22 06:05:29;;;;;;;15.83;14.43;;;20.40;99.90;;;;;;5027197;28;20611;-66
2021/06/22 06:07:55;;;;;;;14.23;13.00;;;20.40;99.90;;;;;;5032981;28;20992;-65
2021/06/22 06:10:21;;;;;;;14.50;13.30;;;20.40;99.90;;;;;;5032650;28;20210;-67
2021/06/22 06:12:47;;;;;;;14.40;13.17;;;20.40;99.90;;;;;;5033182;28;20178;-67
2021/06/22 06:15:13;;;;;;;15.17;13.87;;;20.50;99.90;;;;;;5031862;28;20439;-66
2021/06/22 06:17:39;;;;;;;16.00;14.70;;;20.60;99.90;;;;;;5032858;28;20198;-66
2021/06/22 06:20:08;;;;;;;15.73;14.33;;;20.60;99.90;;;;;;5029094;28;20460;-66
2021/06/22 06:22:34;;;;;;;18.17;16.67;;;20.70;99.90;;;;;;5013473;28;20860;-66
2021/06/22 06:25:02;;;;;;;14.40;13.10;;;20.80;99.90;;;;;;5013392;28;20457;-66
2021/06/22 06:30:19;;;;;;;14.60;13.20;;;20.90;99.90;;;;;;5013348;28;20488;-65
2021/06/22 06:32:45;;;;;;;12.73;11.73;;;21.00;99.90;;;;;;5013413;28;20438;-66
2021/06/22 06:35:12;;;;;;;13.70;12.63;;;21.00;99.90;;;;;;5029282;28;20458;-65
2021/06/22 06:37:37;;;;;;;11.83;10.90;;;20.90;99.90;;;;;;5031281;28;20539;-67
2021/06/22 06:40:05;;;;;;;12.67;11.67;;;20.80;99.90;;;;;;5032417;28;20512;-67
2021/06/22 06:42:31;;;;;;;13.33;12.07;;;20.60;99.90;;;;;;5016642;28;20183;-66
2021/06/22 06:44:56;;;;;;;12.20;11.20;;;20.80;99.90;;;;;;5012825;28;20500;-66
2021/06/22 06:47:22;;;;;;;13.03;11.93;;;21.00;99.90;;;;;;5012955;28;20222;-67
2021/06/22 06:49:48;;;;;;;12.43;11.23;;;21.20;99.90;;;;;;5020307;28;20197;-65
2021/06/22 06:52:14;;;;;;;12.23;11.17;;;21.40;99.90;;;;;;5012902;28;20190;-66
2021/06/22 06:54:39;;;;;;;12.30;10.83;;;21.60;99.90;;;;;;5013088;28;20210;-66
2021/06/22 06:57:05;;;;;;;11.00;10.10;;;21.80;99.90;;;;;;5013918;28;20182;-66
2021/06/22 06:59:31;;;;;;;9.97;9.10;;;22.10;99.90;;;;;;5012478;28;20717;-66
2021/06/22 07:01:56;;;;;;;11.20;9.97;;;22.50;99.90;;;;;;5012775;28;20438;-66
2021/06/22 07:04:22;;;;;;;11.07;10.17;;;22.80;99.90;;;;;;5021515;28;20206;-66
2021/06/22 07:06:47;;;;;;;9.83;9.03;;;23.10;99.90;;;;;;5019645;28;20228;-65
2021/06/22 07:09:14;;;;;;;9.53;8.77;;;23.20;99.90;;;;;;5022411;28;20194;-66
2021/06/22 07:11:40;;;;;;;9.37;8.57;;;23.30;99.90;;;;;;5017849;28;20189;-67
2021/06/22 07:14:05;;;;;;;7.10;6.50;;;23.50;99.90;;;;;;5012457;28;20468;-66
2021/06/22 07:16:31;;;;;;;9.70;8.90;;;23.90;99.90;;;;;;5017925;28;20461;-66
2021/06/22 07:18:57;;;;;;;9.90;9.10;;;24.50;99.90;;;;;;5022261;28;20206;-66
2021/06/22 07:21:23;;;;;;;8.10;7.40;;;24.60;99.90;;;;;;5027643;28;20681;-67
2021/06/22 07:23:48;;;;;;;6.00;5.40;;;24.60;99.90;;;;;;5031614;28;20269;-66
2021/06/22 07:26:14;;;;;;;4.80;4.40;;;24.50;99.90;;;;;;5026713;28;20564;-67
2021/06/22 07:28:40;;;;;;;6.17;5.67;;;24.60;99.90;;;;;;5011966;28;20696;-65
2021/06/22 07:31:07;;;;;;;7.00;4.97;;;24.50;99.90;;;;;;5028821;28;20192;-67
2021/06/22 07:33:33;;;;;;;7.47;6.87;;;24.50;99.90;;;;;;5015114;28;20170;-66
2021/06/22 07:35:59;;;;;;;7.50;5.40;;;24.30;99.90;;;;;;5030386;28;20937;-67
2021/06/22 07:38:24;;;;;;;6.50;6.00;;;24.30;99.90;;;;;;5021480;28;20209;-66
2021/06/22 07:40:50;;;;;;;7.80;7.03;;;24.20;99.90;;;;;;5025227;28;20185;-67
2021/06/22 07:43:16;;;;;;;7.97;6.13;;;24.30;99.90;;;;;;5015232;28;20190;-67
2021/06/22 07:45:42;;;;;;;6.40;5.80;;;24.50;99.90;;;;;;5013105;28;20198;-66
2021/06/22 07:48:09;;;;;;;6.27;5.10;;;25.10;99.90;;;;;;5022985;28;20491;-66
2021/06/22 07:50:34;;;;;;;4.60;4.30;;;25.80;99.90;;;;;;5011827;28;20186;-67
2021/06/22 07:53:02;;;;;;;5.67;5.17;;;26.30;99.90;;;;;;5012135;28;20513;-66
2021/06/22 07:55:28;;;;;;;4.30;4.00;;;26.00;99.90;;;;;;5011951;28;20771;-67
2021/06/22 07:57:54;;;;;;;9.90;9.00;;;25.70;99.90;;;;;;5021711;28;20544;-66
2021/06/22 08:00:42;;;;;;;4.90;4.50;;;25.20;99.90;;;;;;5031163;28;20530;-66
2021/06/22 08:03:11;;;;;;;3.57;3.37;;;24.60;99.90;;;;;;5017639;28;20190;-66
2021/06/22 08:05:37;;;;;;;7.07;4.40;;;24.10;99.90;;;;;;5011767;28;20462;-65
2021/06/22 08:08:03;;;;;;;4.20;3.93;;;24.10;99.90;;;;;;5012070;28;20460;-67
2021/06/22 08:10:29;;;;;;;4.43;3.70;;;24.00;99.90;;;;;;5019442;28;20174;-66
2021/06/22 08:12:56;;;;;;;4.77;4.43;;;24.10;99.90;;;;;;5019888;28;20433;-66
2021/06/22 08:15:21;;;;;;;3.87;3.57;;;23.70;99.90;;;;;;5013677;28;20848;-65
2021/06/22 08:17:47;;;;;;;3.80;3.50;;;23.30;99.90;;;;;;5028490;28;20472;-65
2021/06/22 08:20:13;;;;;;;3.80;3.50;;;23.20;99.90;;;;;;5030868;28;20178;-67
2021/06/22 08:22:38;;;;;;;3.30;3.10;;;23.20;99.90;;;;;;5032009;28;20174;-66
2021/06/22 08:25:06;;;;;;;4.47;3.00;;;23.00;99.90;;;;;;5030115;28;20753;-67
2021/06/22 08:27:32;;;;;;;3.50;3.30;;;23.20;99.90;;;;;;5031777;28;20248;-66
2021/06/22 08:29:57;;;;;;;6.80;3.60;;;23.10;99.90;;;;;;5035282;28;20420;-66
2021/06/22 08:32:23;;;;;;;4.63;3.53;;;23.20;99.90;;;;;;5035464;28;20632;-65
2021/06/22 08:34:49;;;;;;;5.47;4.77;;;23.30;99.90;;;;;;5035278;28;20170;-66
2021/06/22 08:37:14;;;;;;;4.30;3.60;;;23.30;99.90;;;;;;5035256;28;20189;-65
2021/06/22 08:39:40;;;;;;;4.30;3.93;;;23.00;99.90;;;;;;5035198;28;20197;-66
2021/06/22 08:42:09;;;;;;;4.90;3.80;;;23.20;99.90;;;;;;5035146;28;20167;-66
2021/06/22 08:44:37;;;;;;;6.57;3.80;;;23.30;99.90;;;;;;5035179;28;20169;-66
2021/06/22 08:47:03;;;;;;;4.30;4.00;;;23.50;99.90;;;;;;5034938;28;20837;-65
2021/06/22 08:49:32;;;;;;;9.53;5.27;;;23.70;99.90;;;;;;5034728;28;20499;-66
2021/06/22 08:51:58;;;;;;;5.60;4.63;;;23.50;99.90;;;;;;5035110;28;20563;-66
2021/06/22 08:54:24;;;;;;;5.07;4.40;;;23.40;99.90;;;;;;5035068;28;20962;-66
2021/06/22 08:56:49;;;;;;;4.57;4.27;;;23.60;99.90;;;;;;5034990;28;20256;-66
2021/06/22 08:59:15;;;;;;;5.63;3.80;;;23.70;99.90;;;;;;5034665;28;20658;-67
2021/06/22 09:01:40;;;;;;;7.03;5.60;;;23.80;99.90;;;;;;5035418;28;20624;-65
2021/06/22 09:04:06;;;;;;;4.47;4.03;;;23.70;99.90;;;;;;5034799;28;20205;-65
2021/06/22 09:06:39;;;;;;;4.17;3.87;;;23.60;99.90;;;;;;5034759;28;20202;-65
2021/06/22 09:09:07;;;;;;;5.30;4.03;;;23.50;99.90;;;;;;5034424;28;20189;-66
2021/06/22 09:11:33;;;;;;;7.40;4.70;;;23.60;99.90;;;;;;5034655;28;20940;-66
2021/06/22 09:14:02;;;;;;;4.93;4.53;;;23.70;99.90;;;;;;5034666;28;20492;-66
2021/06/22 09:16:29;;;;;;;5.30;4.80;;;23.80;99.90;;;;;;5034476;28;20171;-66
2021/06/22 09:19:06;;;;;;;5.47;5.00;;;23.70;99.90;;;;;;5034206;28;20450;-66
2021/06/22 09:21:40;;;;;;;10.03;5.70;;;23.90;99.90;;;;;;5034667;28;20503;-66
2021/06/22 09:24:15;;;;;;;7.80;5.40;;;23.90;99.90;;;;;;5034565;28;20956;-65
2021/06/22 09:26:44;;;;;;;9.20;6.63;;;24.00;99.90;;;;;;5034232;28;20996;-66
2021/06/22 09:29:12;;;;;;;7.70;7.10;;;24.10;99.90;;;;;;5033969;28;20533;-65
2021/06/22 09:31:48;;;;;;;7.60;7.10;;;24.20;99.90;;;;;;5033790;28;20417;-65
2021/06/22 09:34:14;;;;;;;8.00;7.00;;;24.40;99.90;;;;;;5034318;28;20416;-66
2021/06/22 09:36:39;;;;;;;9.53;7.30;;;24.50;99.90;;;;;;5034224;28;20424;-67
2021/06/22 09:39:07;;;;;;;8.87;8.00;;;24.60;99.90;;;;;;5033330;28;20679;-66
2021/06/22 09:41:37;;;;;;;9.27;8.40;;;24.50;99.90;;;;;;5034135;28;20171;-66
2021/06/22 09:44:11;;;;;;;9.13;8.37;;;24.20;99.90;;;;;;5034394;28;20926;-66
2021/06/22 09:46:46;;;;;;;8.20;7.60;;;24.20;99.90;;;;;;5034425;28;20467;-66
2021/06/22 09:49:15;;;;;;;7.93;7.23;;;24.60;99.90;;;;;;5033654;28;20471;-66
2021/06/22 09:51:54;;;;;;;8.80;8.07;;;25.20;99.90;;;;;;5033745;28;20413;-66
2021/06/22 09:54:46;;;;;;;9.43;8.70;;;25.50;99.90;;;;;;5033899;28;20432;-66
2021/06/22 09:57:14;;;;;;;7.60;7.00;;;25.70;99.90;;;;;;5029352;28;20453;-66
2021/06/22 10:00:05;;;;;;;7.77;7.17;;;25.40;99.90;;;;;;5033483;28;20548;-66
2021/06/22 10:02:48;;;;;;;10.53;9.60;;;25.00;99.90;;;;;;5033771;28;20417;-66
2021/06/22 10:05:15;;;;;;;8.40;7.70;;;24.50;99.90;;;;;;5033704;28;20452;-66
2021/06/22 10:07:41;;;;;;;7.77;7.17;;;24.20;99.90;;;;;;5033488;28;20466;-67
2021/06/22 10:10:07;;;;;;;7.80;7.20;;;23.90;99.90;;;;;;5033304;28;20448;-66
2021/06/22 10:12:38;;;;;;;7.87;7.17;;;24.00;99.90;;;;;;5033417;28;20175;-66
2021/06/22 10:15:04;;;;;;;8.27;7.47;;;24.10;99.90;;;;;;5033512;28;20181;-66
2021/06/22 10:17:31;;;;;;;8.63;6.70;;;24.50;99.90;;;;;;5033384;28;20543;-66
2021/06/22 10:19:59;;;;;;;7.83;7.33;;;24.50;99.90;;;;;;5033066;28;20409;-65
2021/06/22 10:22:27;;;;;;;8.80;8.10;;;24.90;99.90;;;;;;5033342;28;20405;-66
2021/06/22 10:24:56;;;;;;;8.20;7.57;;;24.80;99.90;;;;;;5033188;28;20786;-66
2021/06/22 10:27:22;;;;;;;9.33;8.37;;;24.90;99.90;;;;;;5033126;28;20437;-66
2021/06/22 10:29:51;;;;;;;8.67;7.97;;;24.60;99.90;;;;;;5032913;28;20421;-66
2021/06/22 10:32:20;;;;;;;8.40;7.60;;;24.10;99.90;;;;;;5032783;28;20417;-66
2021/06/22 10:34:53;;;;;;;7.80;6.63;;;23.80;99.90;;;;;;5033111;28;20428;-67
2021/06/22 10:37:41;;;;;;;7.30;6.70;;;23.40;99.90;;;;;;5033055;28;20425;-65
2021/06/22 10:40:11;;;;;;;6.93;6.37;;;22.60;99.90;;;;;;5032809;28;20787;-66
2021/06/22 10:42:43;;;;;;;8.17;7.47;;;22.20;99.90;;;;;;5032730;28;20417;-67
2021/06/22 10:45:09;;;;;;;10.20;8.00;;;22.00;99.90;;;;;;5033089;28;21060;-66
2021/06/22 10:47:37;;;;;;;8.10;7.40;;;21.70;99.90;;;;;;5033317;28;20436;-66
2021/06/22 10:50:07;;;;;;;8.70;7.90;;;21.60;99.90;;;;;;5031914;28;20775;-66
2021/06/22 10:52:51;;;;;;;7.23;6.63;;;21.60;99.90;;;;;;5032783;28;20420;-66
2021/06/22 10:55:46;;;;;;;8.30;7.53;;;21.40;99.90;;;;;;5032813;28;20413;-65
2021/06/22 10:58:16;;;;;;;7.40;6.80;;;21.10;99.90;;;;;;5032445;28;20495;-68
2021/06/22 11:00:50;;;;;;;7.67;7.00;;;21.10;99.90;;;;;;5032732;28;20475;-66
2021/06/22 11:03:20;;;;;;;7.40;6.90;;;21.00;99.90;;;;;;5032667;28;20503;-66
2021/06/22 11:05:46;;;;;;;7.13;6.63;;;21.20;99.90;;;;;;5032914;28;20465;-67
2021/06/22 11:08:17;;;;;;;7.93;7.33;;;21.20;99.90;;;;;;5032408;28;20948;-66
2021/06/22 11:10:52;;;;;;;11.00;10.00;;;21.20;99.90;;;;;;5032695;28;20217;-66
2021/06/22 11:13:40;;;;;;;10.70;9.63;;;21.20;99.90;;;;;;5032539;28;20823;-66
2021/06/22 11:16:21;;;;;;;9.37;8.57;;;21.00;99.90;;;;;;5032508;28;20507;-66
2021/06/22 11:21:28;;;;;;;9.03;8.23;;;20.90;99.90;;;;;;5032394;28;20945;-66
2021/06/22 11:24:04;;;;;;;9.30;8.40;;;20.90;99.90;;;;;;5032310;28;20513;-66
2021/06/22 11:26:53;;;;;;;8.20;7.60;;;20.80;99.90;;;;;;5032133;28;20800;-66
2021/06/22 11:29:25;;;;;;;9.03;8.33;;;20.80;99.90;;;;;;5025157;28;20473;-66
2021/06/22 11:31:51;;;;;;;12.93;10.27;;;20.80;99.90;;;;;;5030944;28;20445;-66
2021/06/22 11:34:24;;;;;;;11.23;10.27;;;20.70;99.90;;;;;;5032079;28;20494;-66
2021/06/22 11:36:51;;;;;;;9.77;8.80;;;20.80;99.90;;;;;;5032052;28;20648;-66
2021/06/22 11:39:28;;;;;;;9.50;8.70;;;20.80;99.90;;;;;;5030510;28;20439;-66
2021/06/22 11:42:09;;;;;;;9.10;8.30;;;20.70;99.90;;;;;;5031973;28;20439;-66
2021/06/22 11:44:48;;;;;;;8.73;8.13;;;20.70;99.90;;;;;;5032101;28;20700;-66
2021/06/22 11:47:34;;;;;;;8.53;7.83;;;20.70;99.90;;;;;;5031887;28;20472;-66
2021/06/22 11:50:19;;;;;;;8.63;7.83;;;20.70;99.90;;;;;;5031323;28;20432;-67
2021/06/22 11:52:50;;;;;;;9.40;8.60;;;20.60;99.90;;;;;;5031593;28;20539;-66
2021/06/22 11:55:21;;;;;;;9.80;8.90;;;20.50;99.90;;;;;;5032188;28;20426;-66
2021/06/22 11:57:57;;;;;;;8.83;8.13;;;20.50;99.90;;;;;;5031822;28;20449;-66
2021/06/22 12:00:28;;;;;;;8.50;7.80;;;20.60;99.90;;;;;;5031557;28;20499;-66
2021/06/22 12:02:55;;;;;;;8.20;7.60;;;20.70;99.90;;;;;;5035088;28;20431;-66
2021/06/22 12:05:23;;;;;;;8.30;7.60;;;20.70;99.90;;;;;;5035796;28;20478;-67
2021/06/22 12:07:51;;;;;;;9.30;7.27;;;20.60;99.90;;;;;;5035786;28;20436;-66
2021/06/22 12:10:18;;;;;;;7.60;6.90;;;20.30;99.90;;;;;;5035525;28;20505;-66
2021/06/22 12:12:46;;;;;;;7.43;6.70;;;20.40;99.90;;;;;;5035593;28;20424;-66
2021/06/22 12:15:13;;;;;;;7.90;7.30;;;20.50;99.90;;;;;;5035723;28;20494;-66
2021/06/22 12:17:39;;;;;;;7.03;6.43;;;20.60;99.90;;;;;;5035647;28;20439;-66
2021/06/22 12:20:23;;;;;;;7.80;7.00;;;20.50;99.90;;;;;;5035324;28;20795;-66
2021/06/22 12:23:04;;;;;;;8.43;7.73;;;20.50;99.90;;;;;;5035672;28;20174;-65
2021/06/22 12:25:34;;;;;;;7.40;6.70;;;20.50;99.90;;;;;;5035605;28;20555;-65
2021/06/22 12:28:00;;;;;;;8.70;7.90;;;20.40;99.90;;;;;;5035376;28;20498;-66
2021/06/22 12:30:41;;;;;;;7.23;6.73;;;20.30;99.90;;;;;;5035271;28;20416;-66
2021/06/22 12:33:08;;;;;;;7.70;7.10;;;20.20;99.90;;;;;;5035463;28;20265;-65
2021/06/22 12:35:33;;;;;;;8.73;8.03;;;20.20;99.90;;;;;;5035236;28;20513;-66
2021/06/22 12:38:07;;;;;;;7.83;7.13;;;20.10;99.90;;;;;;5035173;28;20566;-65
2021/06/22 12:40:45;;;;;;;8.50;7.70;;;20.00;99.90;;;;;;5035171;28;20543;-66
2021/06/22 12:43:12;;;;;;;9.40;8.13;;;19.80;99.90;;;;;;5035246;28;20423;-66
2021/06/22 12:45:38;;;;;;;10.87;9.33;;;19.50;99.90;;;;;;5035039;28;20468;-66
2021/06/22 12:48:04;;;;;;;12.80;8.17;;;19.30;99.90;;;;;;5034957;28;21012;-66
2021/06/22 12:50:32;;;;;;;9.30;8.50;;;19.10;99.90;;;;;;5034776;28;20174;-66